Terminal Aerodrome Forecast
Issued by NWS

Current Version | Previous Version | Text Only | Print | Product List | Glossary On
Versions: 1 2 3 4 5 6 7 8 9 10 11 12 13 14 15 16 17 18 19 20 21 22 23 24 25 26 27 28 29
000
FTUS45 KGJT 241316 AAA
TAFTEX
TAF AMD
KTEX 241316Z 2413/2512 26005KT P6SM -SN SCT025 BKN035
      TEMPO 2413/2414 3SM -SN FEW008 SCT015 OVC030
     FM241400 26004KT P6SM SCT035 BKN060
     FM241900 26010KT P6SM FEW060 SCT250
     FM250200 19005KT P6SM VCSH SCT030 BKN060
     FM250700 20009KT P6SM SCT015 OVC020=

USA.gov is the U.S. government's official web portal to all federal, state and local government web resources and services.